Time;durP1;ratioP1;P1;durP2;ratioP2;P2;SDS_P1;SDS_P2;PMS_P1;PMS_P2;Temp;Humidity;BMP_temperature;BMP_pressure;BME280_temperature;BME280_humidity;BME280_pressure;Samples;Min_cycle;Max_cycle;Signal;HPM_P1;HPM_P2
2023/05/31 00:01:02;;;;;;;3.45;1.67;;;;;;;21.80;40.99;102490.03;5006660;28;20298;-70
2023/05/31 00:03:27;;;;;;;3.22;1.73;;;;;;;21.82;41.22;102484.63;5001957;28;20521;-68
2023/05/31 00:05:52;;;;;;;3.20;1.65;;;;;;;21.78;41.11;102484.00;5013888;28;20041;-69
2023/05/31 00:08:18;;;;;;;3.65;1.60;;;;;;;21.80;40.95;102490.03;5019450;28;20029;-70
2023/05/31 00:10:43;;;;;;;2.70;1.60;;;;;;;21.80;41.29;102494.50;5009670;28;20057;-68
2023/05/31 00:13:08;;;;;;;4.72;1.88;;;;;;;21.78;41.20;102488.44;5001334;28;20058;-67
2023/05/31 00:15:34;;;;;;;3.75;1.70;;;;;;;21.79;41.13;102496.28;5020040;28;20311;-68
2023/05/31 00:17:59;;;;;;;3.00;1.70;;;;;;;21.78;40.94;102488.44;5020826;28;20077;-70
2023/05/31 00:20:24;;;;;;;3.33;1.70;;;;;;;21.77;41.00;102490.25;5012492;28;20813;-68
2023/05/31 00:22:49;;;;;;;2.80;1.58;;;;;;;21.76;41.10;102487.72;5013586;28;20259;-68
2023/05/31 00:25:15;;;;;;;3.40;1.60;;;;;;;21.77;41.13;102484.94;5013694;28;20033;-70
2023/05/31 00:27:41;;;;;;;4.95;1.90;;;;;;;21.74;41.29;102487.81;5018071;28;20505;-68
2023/05/31 00:30:06;;;;;;;3.28;1.60;;;;;;;21.73;41.28;102481.69;5001559;28;20390;-70
2023/05/31 00:32:32;;;;;;;2.88;1.75;;;;;;;21.74;41.14;102483.34;5015435;28;20394;-69
2023/05/31 00:34:57;;;;;;;3.77;1.90;;;;;;;21.71;41.14;102480.94;5020510;28;20081;-67
2023/05/31 00:37:22;;;;;;;4.40;1.70;;;;;;;21.73;41.19;102492.28;5008587;28;20353;-67
2023/05/31 00:39:48;;;;;;;3.33;1.70;;;;;;;21.73;40.99;102484.31;5020303;28;20281;-67
2023/05/31 00:42:14;;;;;;;3.97;1.80;;;;;;;21.72;41.16;102487.09;5020260;28;20037;-67
2023/05/31 00:44:39;;;;;;;3.35;2.00;;;;;;;21.72;41.07;102489.75;5015902;28;20041;-67
2023/05/31 00:47:05;;;;;;;4.07;1.67;;;;;;;21.71;41.00;102490.69;5005088;28;20107;-68
2023/05/31 00:49:30;;;;;;;2.97;1.52;;;;;;;21.71;41.29;102491.56;5016731;28;20274;-68
2023/05/31 00:51:57;;;;;;;3.28;1.70;;;;;;;21.69;41.22;102492.63;5024707;28;20025;-68
2023/05/31 00:54:22;;;;;;;3.72;1.95;;;;;;;21.71;41.25;102496.88;5024218;28;20044;-69
2023/05/31 00:56:48;;;;;;;4.18;2.10;;;;;;;21.68;41.27;102493.56;5008283;28;20029;-68
2023/05/31 00:59:15;;;;;;;2.65;1.58;;;;;;;21.69;41.29;102497.91;5015323;28;20466;-68
2023/05/31 01:01:40;;;;;;;2.78;1.30;;;;;;;21.67;41.24;102489.22;5019928;28;20099;-68
2023/05/31 01:04:07;;;;;;;3.00;1.60;;;;;;;21.67;41.42;102487.41;5004692;28;20466;-68
2023/05/31 01:06:34;;;;;;;4.78;1.95;;;;;;;21.68;41.27;102502.38;5004564;28;20124;-69
2023/05/31 01:09:04;;;;;;;3.22;1.73;;;;;;;21.66;40.96;102509.59;5014763;28;20044;-71
2023/05/31 01:11:57;;;;;;;3.70;1.80;;;;;;;21.66;41.11;102503.44;5016473;28;20034;-68
2023/05/31 01:14:37;;;;;;;4.53;2.22;;;;;;;21.67;40.92;102497.19;5014075;28;20037;-68
2023/05/31 01:17:13;;;;;;;3.33;1.80;;;;;;;21.67;41.12;102500.69;5004307;28;20169;-68
2023/05/31 01:19:48;;;;;;;2.65;1.50;;;;;;;21.61;41.31;102490.50;5017882;28;20037;-68
2023/05/31 01:22:27;;;;;;;3.72;1.83;;;;;;;21.61;41.38;102493.16;5004782;28;20496;-68
2023/05/31 01:25:04;;;;;;;4.53;1.90;;;;;;;21.63;41.21;102501.84;5005089;28;20029;-68
2023/05/31 01:27:31;;;;;;;3.88;1.77;;;;;;;21.64;41.24;102498.25;5008962;28;20152;-66
2023/05/31 01:29:59;;;;;;;3.80;1.70;;;;;;;21.61;41.11;102498.44;5004161;28;20057;-68
2023/05/31 01:32:24;;;;;;;2.90;1.60;;;;;;;21.60;41.30;102491.44;5004080;28;20030;-67
2023/05/31 01:34:50;;;;;;;3.50;1.77;;;;;;;21.61;41.27;102489.66;5004369;28;20374;-68
2023/05/31 01:37:15;;;;;;;4.10;1.60;;;;;;;21.60;41.22;102490.59;5023689;28;20465;-70
2023/05/31 01:39:41;;;;;;;3.88;1.55;;;;;;;21.61;41.31;102490.50;5023705;28;20037;-67
2023/05/31 01:42:09;;;;;;;3.05;1.50;;;;;;;21.59;41.20;102478.28;5023686;28;20040;-70
2023/05/31 01:44:35;;;;;;;4.55;1.80;;;;;;;21.61;41.44;102485.19;5013789;28;20060;-66
2023/05/31 01:47:01;;;;;;;3.70;1.63;;;;;;;21.60;41.33;102482.63;5023331;28;20046;-70
2023/05/31 01:49:26;;;;;;;3.80;1.63;;;;;;;21.60;41.23;102487.94;5023605;28;20083;-69
2023/05/31 01:51:52;;;;;;;4.28;1.92;;;;;;;21.58;41.53;102484.56;5016889;28;20032;-68
2023/05/31 01:54:17;;;;;;;3.00;1.70;;;;;;;21.59;41.46;102487.13;5003955;28;20047;-67
2023/05/31 01:56:45;;;;;;;3.40;1.75;;;;;;;21.59;41.22;102488.91;5003751;28;20498;-69
2023/05/31 01:59:11;;;;;;;3.58;1.83;;;;;;;21.58;41.51;102481.91;5015929;28;20183;-71
2023/05/31 02:01:38;;;;;;;3.30;1.65;;;;;;;21.56;41.42;102476.72;5008909;28;20049;-68
2023/05/31 02:04:04;;;;;;;3.17;1.58;;;;;;;21.53;41.37;102469.81;5019701;28;20056;-67
2023/05/31 02:06:30;;;;;;;4.07;1.80;;;;;;;21.55;41.25;102470.56;5016196;28;20487;-68
2023/05/31 02:08:55;;;;;;;4.40;1.77;;;;;;;21.56;41.38;102479.38;5003755;28;20029;-68
2023/05/31 02:11:20;;;;;;;4.18;1.70;;;;;;;21.55;41.61;102473.22;5003253;28;20037;-70
2023/05/31 02:13:45;;;;;;;3.40;1.70;;;;;;;21.54;41.35;102466.22;5004196;28;20394;-67
2023/05/31 02:16:11;;;;;;;3.55;1.85;;;;;;;21.55;41.25;102475.88;5022367;28;20533;-68
2023/05/31 02:18:36;;;;;;;4.63;1.80;;;;;;;21.55;40.90;102467.03;5016222;28;20484;-68
2023/05/31 02:21:02;;;;;;;3.05;1.60;;;;;;;21.54;41.23;102465.38;5008311;28;20258;-68
2023/05/31 02:23:27;;;;;;;4.35;1.90;;;;;;;21.53;41.37;102467.16;5023124;28;20437;-68
2023/05/31 02:25:53;;;;;;;3.47;1.60;;;;;;;21.53;41.28;102467.16;5022554;28;20037;-67
2023/05/31 02:28:18;;;;;;;3.35;1.50;;;;;;;21.48;41.28;102455.16;5021351;28;20263;-68
2023/05/31 02:30:57;;;;;;;3.58;1.80;;;;;;;21.52;41.52;102469.91;5002905;28;20036;-68
2023/05/31 02:33:23;;;;;;;3.40;1.60;;;;;;;21.52;41.66;102475.22;5007178;28;20144;-70
2023/05/31 02:35:49;;;;;;;4.70;1.88;;;;;;;21.52;41.53;102469.91;5013032;28;20105;-67
2023/05/31 02:38:14;;;;;;;4.05;1.58;;;;;;;21.48;41.56;102468.41;5014522;28;20021;-70
2023/05/31 02:40:39;;;;;;;4.65;1.70;;;;;;;21.49;41.83;102467.47;5010442;28;20935;-67
2023/05/31 02:43:05;;;;;;;3.70;1.90;;;;;;;21.50;41.52;102466.53;5020577;28;20038;-66
2023/05/31 02:45:30;;;;;;;3.40;1.63;;;;;;;21.51;41.63;102463.78;5022269;28;20033;-67
2023/05/31 02:47:55;;;;;;;5.57;1.90;;;;;;;21.51;41.46;102468.25;5022667;28;20048;-66
2023/05/31 02:50:21;;;;;;;3.45;1.65;;;;;;;21.51;41.64;102468.25;5022599;28;20029;-67
2023/05/31 02:52:46;;;;;;;3.88;1.90;;;;;;;21.47;41.45;102470.19;5007465;28;20482;-67
2023/05/31 02:55:11;;;;;;;3.45;1.75;;;;;;;21.49;41.44;102470.13;5008627;28;20041;-71
2023/05/31 02:57:36;;;;;;;3.58;1.83;;;;;;;21.48;41.49;102471.94;5021832;28;20440;-67
2023/05/31 03:00:10;;;;;;;3.75;1.95;;;;;;;21.45;41.64;102465.97;5021478;28;20044;-67
2023/05/31 03:02:37;;;;;;;3.45;1.80;;;;;;;21.45;41.41;102471.28;5005958;28;20033;-69
2023/05/31 03:05:04;;;;;;;4.53;1.60;;;;;;;21.47;41.49;102470.19;5009639;28;20124;-67
2023/05/31 03:07:29;;;;;;;3.60;1.80;;;;;;;21.45;41.59;102472.13;5021011;28;20665;-68
2023/05/31 03:09:55;;;;;;;3.60;1.70;;;;;;;21.46;41.34;102476.47;5020559;28;20037;-70
2023/05/31 03:12:20;;;;;;;3.88;1.83;;;;;;;21.46;41.40;102475.63;5019892;28;20033;-67
2023/05/31 03:14:46;;;;;;;2.97;1.75;;;;;;;21.44;41.60;102469.56;5017702;28;20037;-71
2023/05/31 03:17:11;;;;;;;3.33;1.58;;;;;;;21.44;41.51;102473.06;5001784;28;20430;-67
2023/05/31 03:19:36;;;;;;;3.88;1.85;;;;;;;21.43;41.35;102475.81;5001981;28;20064;-67
2023/05/31 03:22:02;;;;;;;4.40;1.80;;;;;;;21.42;41.56;102474.16;5002176;28;20038;-67
2023/05/31 03:24:27;;;;;;;4.97;1.85;;;;;;;21.43;41.56;102468.75;5002044;28;20298;-67
2023/05/31 03:26:54;;;;;;;3.30;1.60;;;;;;;21.42;41.33;102460.88;5002009;28;20041;-67
2023/05/31 03:29:20;;;;;;;3.97;1.90;;;;;;;21.41;41.44;102465.31;5004403;28;20070;-67
2023/05/31 03:31:45;;;;;;;3.83;1.98;;;;;;;21.43;41.57;102462.56;5017369;28;20391;-69
2023/05/31 03:34:10;;;;;;;3.80;1.80;;;;;;;21.36;41.72;102455.06;5005512;28;20466;-67
2023/05/31 03:36:36;;;;;;;3.67;2.03;;;;;;;21.41;41.61;102465.31;5001629;28;20034;-69
2023/05/31 03:39:02;;;;;;;4.18;2.00;;;;;;;21.42;41.64;102468.84;5002209;28;20040;-67
2023/05/31 03:41:27;;;;;;;3.80;1.90;;;;;;;21.40;41.71;102457.50;5001729;28;20034;-67
2023/05/31 03:43:52;;;;;;;3.20;1.90;;;;;;;21.40;41.02;102468.13;5004525;28;20034;-68
2023/05/31 03:46:18;;;;;;;3.67;1.83;;;;;;;21.39;41.37;102467.25;5001260;28;20473;-67
2023/05/31 03:48:44;;;;;;;4.80;2.00;;;;;;;21.41;41.58;102472.44;5001934;28;20401;-67
2023/05/31 03:51:09;;;;;;;4.45;1.95;;;;;;;21.40;41.53;102473.41;5013962;28;20037;-67
2023/05/31 03:53:34;;;;;;;3.80;1.75;;;;;;;21.37;41.39;102467.34;5012758;28;20038;-67
2023/05/31 03:56:00;;;;;;;5.78;2.00;;;;;;;21.40;41.43;102468.13;5004010;28;20076;-68
2023/05/31 03:58:25;;;;;;;5.35;1.95;;;;;;;21.37;41.61;102463.84;5012549;28;20870;-67
2023/05/31 04:00:51;;;;;;;4.10;2.00;;;;;;;21.38;41.97;102465.56;5003339;28;20042;-68
2023/05/31 04:03:16;;;;;;;4.07;2.20;;;;;;;21.37;41.53;102463.84;5014264;28;20833;-67
2023/05/31 04:05:41;;;;;;;3.83;1.60;;;;;;;21.38;41.43;102468.22;5010999;28;20034;-66
2023/05/31 04:08:07;;;;;;;3.97;2.00;;;;;;;21.36;41.26;102470.97;5009460;28;20029;-66
2023/05/31 04:10:33;;;;;;;3.40;1.92;;;;;;;21.35;41.58;102466.63;5002670;28;20527;-66
2023/05/31 04:12:58;;;;;;;3.72;1.98;;;;;;;21.37;41.51;102470.00;5003390;28;20439;-67
2023/05/31 04:15:24;;;;;;;4.53;2.00;;;;;;;21.37;41.59;102466.50;5016453;28;20041;-69
2023/05/31 04:17:49;;;;;;;3.83;1.95;;;;;;;21.34;41.40;102464.06;5010235;28;20053;-67
2023/05/31 04:20:16;;;;;;;4.78;2.15;;;;;;;21.33;41.63;102459.72;5018180;28;20036;-67
2023/05/31 04:22:41;;;;;;;3.65;1.98;;;;;;;21.34;41.21;102466.72;5010484;28;20073;-67
2023/05/31 04:25:07;;;;;;;4.35;2.25;;;;;;;21.33;41.55;102463.22;5013203;28;20068;-67
2023/05/31 04:27:32;;;;;;;3.80;2.03;;;;;;;21.34;41.62;102472.88;5003191;28;20049;-69
2023/05/31 04:29:58;;;;;;;4.15;1.90;;;;;;;21.34;41.58;102466.72;5013448;28;20033;-68
2023/05/31 04:32:27;;;;;;;3.55;1.70;;;;;;;21.33;41.90;102468.53;5011493;28;20041;-69
2023/05/31 04:34:57;;;;;;;4.05;2.28;;;;;;;21.33;41.60;102473.84;5011681;28;20029;-68
2023/05/31 04:37:26;;;;;;;4.50;2.17;;;;;;;21.32;41.63;102464.19;5013716;28;20034;-67
2023/05/31 04:39:52;;;;;;;4.00;2.08;;;;;;;21.32;41.83;102460.69;5009486;28;20030;-68
2023/05/31 04:42:17;;;;;;;4.65;2.40;;;;;;;21.30;41.74;102463.44;5010124;28;20091;-69
2023/05/31 04:44:42;;;;;;;5.55;2.58;;;;;;;21.33;41.76;102468.53;5013052;28;20877;-69
2023/05/31 04:47:08;;;;;;;5.00;2.22;;;;;;;21.32;41.81;102469.47;5025677;28;20533;-70
2023/05/31 04:49:33;;;;;;;4.93;2.10;;;;;;;21.33;41.74;102470.31;5007087;28;20923;-68
2023/05/31 04:51:59;;;;;;;4.65;2.13;;;;;;;21.33;41.74;102467.66;5009815;28;20036;-69
2023/05/31 04:54:24;;;;;;;4.88;2.20;;;;;;;21.32;41.74;102464.19;5013469;28;20454;-67
2023/05/31 04:56:50;;;;;;;5.65;2.10;;;;;;;21.32;41.81;102468.66;5013871;28;20503;-68
2023/05/31 04:59:15;;;;;;;4.78;2.15;;;;;;;21.33;41.89;102465.00;5014078;28;20152;-68
2023/05/31 05:01:40;;;;;;;4.50;2.15;;;;;;;21.32;42.07;102469.47;5014647;28;20030;-69
2023/05/31 05:04:06;;;;;;;5.15;2.13;;;;;;;21.33;41.81;102471.19;5010682;28;20113;-71
2023/05/31 05:06:32;;;;;;;4.90;2.30;;;;;;;21.31;41.98;102465.13;5011485;28;20164;-67
2023/05/31 05:08:58;;;;;;;3.72;2.05;;;;;;;21.33;41.99;102459.72;5007300;28;20036;-68
2023/05/31 05:11:23;;;;;;;4.85;2.63;;;;;;;21.33;41.87;102462.38;5015262;28;20046;-69
2023/05/31 05:13:48;;;;;;;4.47;2.45;;;;;;;21.30;41.68;102466.09;5006841;28;20033;-68
2023/05/31 05:16:14;;;;;;;5.22;2.30;;;;;;;21.31;41.98;102467.78;5015109;28;20494;-71
2023/05/31 05:18:39;;;;;;;5.00;2.25;;;;;;;21.32;41.94;102472.13;5011605;28;20040;-69
2023/05/31 05:21:05;;;;;;;3.97;2.10;;;;;;;21.32;42.04;102471.28;5015300;28;20064;-69
2023/05/31 05:23:32;;;;;;;4.50;2.20;;;;;;;21.32;41.87;102474.78;5012003;28;20073;-71
2023/05/31 05:25:58;;;;;;;4.38;2.30;;;;;;;21.32;41.87;102471.28;5008779;28;20109;-67
2023/05/31 05:28:23;;;;;;;4.32;2.20;;;;;;;21.30;42.02;102471.41;5015009;28;20033;-71
2023/05/31 05:30:50;;;;;;;4.97;2.33;;;;;;;21.32;41.87;102479.25;5015085;28;20017;-71
2023/05/31 05:33:15;;;;;;;4.05;2.28;;;;;;;21.32;42.15;102482.75;5014132;28;20339;-70
2023/05/31 05:35:41;;;;;;;4.05;2.25;;;;;;;21.33;41.83;102480.94;5010731;28;20489;-68
2023/05/31 05:38:06;;;;;;;4.50;2.42;;;;;;;21.29;41.78;102469.69;5012712;28;20553;-68
2023/05/31 05:40:31;;;;;;;5.80;2.67;;;;;;;21.33;42.13;102480.94;5018586;28;20025;-69
2023/05/31 05:42:56;;;;;;;5.00;2.50;;;;;;;21.32;42.07;102480.09;5010858;28;20390;-68
2023/05/31 05:45:22;;;;;;;3.97;2.13;;;;;;;21.31;41.90;102481.03;5008251;28;20283;-68
2023/05/31 05:47:48;;;;;;;4.72;2.40;;;;;;;21.29;42.23;102484.75;5013967;28;20267;-69
2023/05/31 05:50:14;;;;;;;4.50;2.65;;;;;;;21.32;42.22;102481.91;5017783;28;20041;-66
2023/05/31 05:52:39;;;;;;;4.93;2.33;;;;;;;21.33;42.06;102480.94;5012113;28;20034;-67
2023/05/31 05:55:05;;;;;;;4.82;2.45;;;;;;;21.31;42.11;102478.38;5013746;28;20124;-67
2023/05/31 05:57:30;;;;;;;5.35;2.67;;;;;;;21.32;42.27;102477.44;5008072;28;20038;-69
2023/05/31 05:59:57;;;;;;;5.03;2.63;;;;;;;21.30;42.34;102473.19;5010770;28;20030;-70
2023/05/31 06:02:22;;;;;;;4.35;2.40;;;;;;;21.33;42.22;102479.16;5012365;28;20034;-66
2023/05/31 06:04:49;;;;;;;4.90;2.63;;;;;;;21.32;41.95;102484.56;5014654;28;21093;-68
2023/05/31 06:07:15;;;;;;;4.55;2.47;;;;;;;21.32;42.19;102481.91;5016625;28;20033;-67
2023/05/31 06:09:41;;;;;;;5.07;2.60;;;;;;;21.31;42.55;102473.06;5016739;28;20386;-66
2023/05/31 06:12:06;;;;;;;4.75;2.33;;;;;;;21.34;42.36;102482.63;5013604;28;20073;-67
2023/05/31 06:14:32;;;;;;;5.90;2.85;;;;;;;21.35;42.31;102484.34;5008830;28;20099;-68
2023/05/31 06:16:57;;;;;;;4.32;2.30;;;;;;;21.31;42.13;102470.44;5012858;28;20042;-67
2023/05/31 06:19:22;;;;;;;4.47;2.40;;;;;;;21.34;42.32;102482.63;5003582;28;20095;-67
2023/05/31 06:21:49;;;;;;;4.87;2.60;;;;;;;21.33;42.25;102476.50;5013618;28;20258;-67
2023/05/31 06:24:14;;;;;;;5.63;2.75;;;;;;;21.34;42.40;102485.28;5023076;28;20269;-65
2023/05/31 06:26:40;;;;;;;4.75;2.38;;;;;;;21.34;42.67;102479.97;5017083;28;20045;-66
2023/05/31 06:29:05;;;;;;;4.85;2.60;;;;;;;21.33;42.43;102484.44;5021365;28;20048;-68
2023/05/31 06:31:31;;;;;;;4.55;2.55;;;;;;;21.35;42.40;102484.34;5003782;28;20502;-68
2023/05/31 06:33:56;;;;;;;5.72;2.80;;;;;;;21.34;42.22;102493.25;5014911;28;20033;-68
2023/05/31 06:36:22;;;;;;;6.00;2.72;;;;;;;21.32;42.15;102490.69;5010758;28;20037;-67
2023/05/31 06:38:47;;;;;;;5.30;2.80;;;;;;;21.34;42.24;102486.13;5022598;28;20033;-66
2023/05/31 06:41:12;;;;;;;6.35;3.10;;;;;;;21.33;42.16;102486.22;5005355;28;20030;-66
2023/05/31 06:43:38;;;;;;;4.55;2.47;;;;;;;21.34;42.45;102491.44;5016869;28;20044;-65
2023/05/31 06:46:07;;;;;;;6.13;2.70;;;;;;;21.38;42.59;102495.56;5022249;28;20033;-67
2023/05/31 06:48:32;;;;;;;6.10;3.03;;;;;;;21.37;42.65;102493.88;5004579;28;20072;-66
2023/05/31 06:50:57;;;;;;;5.35;2.63;;;;;;;21.38;42.59;102492.94;5001401;28;20076;-66
2023/05/31 06:53:23;;;;;;;4.87;2.70;;;;;;;21.37;42.54;102490.38;5011008;28;20663;-67
2023/05/31 06:55:48;;;;;;;5.85;2.40;;;;;;;21.36;42.53;102489.53;5002916;28;20267;-69
2023/05/31 06:58:16;;;;;;;6.05;2.30;;;;;;;21.35;42.96;102493.13;5016684;28;20030;-67
2023/05/31 07:00:41;;;;;;;6.22;2.60;;;;;;;21.27;43.42;102490.16;5001154;28;20075;-69
2023/05/31 07:03:07;;;;;;;4.60;2.35;;;;;;;21.27;43.40;102486.66;5001350;28;20029;-69
2023/05/31 07:05:32;;;;;;;5.43;2.60;;;;;;;21.27;43.40;102497.25;5002529;28;20044;-67
2023/05/31 07:07:57;;;;;;;4.18;2.15;;;;;;;21.27;43.64;102492.81;5003264;28;20360;-68
2023/05/31 07:10:22;;;;;;;5.68;2.40;;;;;;;21.30;43.80;102491.75;5006418;28;20034;-68
2023/05/31 07:12:48;;;;;;;4.13;2.40;;;;;;;21.29;43.62;102488.25;5021196;28;20029;-67
2023/05/31 07:15:13;;;;;;;5.55;2.35;;;;;;;21.31;43.83;102483.69;5006238;28;20501;-67
2023/05/31 07:17:38;;;;;;;5.20;2.58;;;;;;;21.28;43.95;102480.41;5003928;28;20046;-66
2023/05/31 07:20:06;;;;;;;6.07;2.25;;;;;;;21.30;44.07;102483.78;5005993;28;20088;-67
2023/05/31 07:22:32;;;;;;;6.35;2.53;;;;;;;21.28;44.38;102475.94;5003838;28;20124;-66
2023/05/31 07:24:57;;;;;;;6.13;2.38;;;;;;;21.29;44.09;102474.16;5016101;28;20113;-68
2023/05/31 07:27:23;;;;;;;5.82;2.45;;;;;;;21.32;44.15;102468.66;5021707;28;20037;-68
2023/05/31 07:29:48;;;;;;;6.05;2.40;;;;;;;21.34;43.95;102470.22;5017222;28;20033;-67
2023/05/31 07:32:13;;;;;;;5.93;2.88;;;;;;;21.38;43.84;102478.81;5007492;28;20417;-66
2023/05/31 07:34:39;;;;;;;4.93;2.30;;;;;;;21.38;43.89;102474.34;5019420;28;20552;-68
2023/05/31 07:37:04;;;;;;;4.78;2.50;;;;;;;21.37;44.10;102469.16;5005920;28;20255;-69
2023/05/31 07:39:30;;;;;;;5.40;2.58;;;;;;;21.40;44.16;102474.25;5013698;28;20044;-69
2023/05/31 07:41:58;;;;;;;4.80;2.58;;;;;;;21.38;44.38;102473.53;5020866;28;20033;-68
2023/05/31 07:44:25;;;;;;;6.35;2.60;;;;;;;21.40;43.95;102476.06;5020864;28;20052;-70
2023/05/31 07:46:50;;;;;;;5.40;2.78;;;;;;;21.43;43.89;102474.03;5010619;28;20034;-65
2023/05/31 07:49:15;;;;;;;6.53;2.97;;;;;;;21.45;43.72;102465.97;5001427;28;20044;-68
2023/05/31 07:51:40;;;;;;;12.50;2.60;;;;;;;21.45;44.14;102474.78;5001522;28;20390;-67
2023/05/31 07:54:06;;;;;;;5.43;2.83;;;;;;;21.42;43.91;102471.50;5001903;28;20593;-67
2023/05/31 07:56:31;;;;;;;4.75;2.22;;;;;;;21.42;44.00;102468.84;5013802;28;20259;-68
2023/05/31 07:58:56;;;;;;;6.10;2.90;;;;;;;21.43;43.77;102467.88;5005138;28;21044;-66
2023/05/31 08:01:22;;;;;;;6.47;2.50;;;;;;;21.43;44.23;102470.53;5021035;28;20263;-65
2023/05/31 08:03:49;;;;;;;4.80;2.92;;;;;;;21.42;44.09;102459.06;5011659;28;20352;-66
2023/05/31 08:06:14;;;;;;;6.68;2.40;;;;;;;21.44;44.43;102462.47;5011873;28;20073;-68
2023/05/31 08:08:42;;;;;;;8.23;2.83;;;;;;;21.40;44.61;102461.00;5004964;28;20485;-71
2023/05/31 08:11:07;;;;;;;8.70;2.75;;;;;;;21.42;44.69;102453.78;5008076;28;20124;-68
2023/05/31 08:13:32;;;;;;;5.43;2.63;;;;;;;21.44;44.81;102456.31;5011925;28;20113;-68
2023/05/31 08:15:58;;;;;;;7.93;2.40;;;;;;;21.43;44.90;102455.47;5010543;28;20946;-69
2023/05/31 08:18:23;;;;;;;8.43;2.42;;;;;;;21.42;45.13;102453.78;5002069;28;20049;-69
2023/05/31 08:20:48;;;;;;;8.30;3.20;;;;;;;21.43;44.99;102454.59;5001560;28;20077;-67
2023/05/31 08:23:18;;;;;;;8.57;3.00;;;;;;;21.47;44.77;102453.44;5020109;28;20436;-67
2023/05/31 08:25:43;;;;;;;8.75;3.55;;;;;;;21.49;45.11;102454.22;5010603;28;20564;-68
2023/05/31 08:28:08;;;;;;;8.48;2.92;;;;;;;21.52;44.97;102464.59;5016329;28;20026;-69
2023/05/31 08:30:34;;;;;;;6.00;2.90;;;;;;;21.52;44.50;102452.22;5006922;28;20034;-70
2023/05/31 08:32:59;;;;;;;6.07;3.03;;;;;;;21.56;44.52;102451.03;5009107;28;20263;-68
2023/05/31 08:35:25;;;;;;;6.78;2.83;;;;;;;21.60;44.46;102451.66;5008460;28;20444;-69
2023/05/31 08:37:50;;;;;;;4.97;2.72;;;;;;;21.60;44.66;102448.16;5005943;28;20473;-69
2023/05/31 08:40:16;;;;;;;7.72;3.30;;;;;;;21.61;44.64;102448.03;5009594;28;20036;-68
2023/05/31 08:42:52;;;;;;;7.68;3.15;;;;;;;21.62;44.95;102443.59;5016130;28;20216;-68
2023/05/31 08:45:17;;;;;;;5.75;2.78;;;;;;;21.65;44.56;102443.38;5007251;28;20029;-69
2023/05/31 08:47:45;;;;;;;5.22;2.60;;;;;;;21.69;44.48;102450.16;5008546;28;20052;-69
2023/05/31 08:50:11;;;;;;;9.38;3.30;;;;;;;21.71;44.84;102454.41;5008171;28;20446;-69
2023/05/31 08:52:38;;;;;;;6.38;2.92;;;;;;;21.71;44.57;102440.28;5011877;28;20029;-68
2023/05/31 08:55:04;;;;;;;6.78;2.92;;;;;;;21.74;44.81;102446.19;5007080;28;20052;-70
2023/05/31 08:57:31;;;;;;;5.00;2.70;;;;;;;21.73;44.80;102441.03;5010852;28;20470;-68
2023/05/31 08:59:56;;;;;;;7.70;2.70;;;;;;;21.78;44.49;102435.38;5009734;28;20516;-66
2023/05/31 09:02:23;;;;;;;7.47;2.78;;;;;;;21.79;44.68;102432.59;5014266;28;20065;-69
2023/05/31 09:04:50;;;;;;;7.78;2.90;;;;;;;21.74;44.88;102424.13;5016719;28;20034;-69
2023/05/31 09:07:15;;;;;;;6.97;3.05;;;;;;;21.81;44.58;102429.84;5018183;28;20038;-68
2023/05/31 09:09:40;;;;;;;8.63;2.87;;;;;;;21.83;44.69;102426.13;5018082;28;20026;-68
2023/05/31 09:12:06;;;;;;;7.00;2.90;;;;;;;21.84;44.57;102425.19;5005967;28;20370;-68
2023/05/31 09:14:33;;;;;;;7.15;2.90;;;;;;;21.86;44.55;102427.72;5018006;28;20034;-68
2023/05/31 09:16:59;;;;;;;5.68;2.47;;;;;;;21.87;44.60;102427.63;5020135;28;20124;-69
2023/05/31 09:19:25;;;;;;;5.28;2.40;;;;;;;21.87;44.49;102432.06;5009582;28;20474;-69
2023/05/31 09:21:52;;;;;;;5.13;2.75;;;;;;;21.86;44.65;102417.94;5009949;28;20044;-68
2023/05/31 09:24:19;;;;;;;9.65;2.78;;;;;;;21.91;44.46;102425.59;5006380;28;20034;-70
2023/05/31 09:26:49;;;;;;;6.40;2.50;;;;;;;21.88;44.38;102415.19;5008126;28;20171;-69
2023/05/31 09:29:17;;;;;;;5.20;2.50;;;;;;;21.93;44.32;102415.69;5006588;28;20037;-70
2023/05/31 09:31:42;;;;;;;5.60;2.50;;;;;;;21.93;44.45;102416.53;5008461;28;20034;-69
2023/05/31 09:34:29;;;;;;;7.50;2.20;;;;;;;21.91;44.54;102409.66;5015137;28;20491;-69
2023/05/31 09:37:01;;;;;;;5.80;2.53;;;;;;;21.93;44.49;102413.03;5023572;28;20112;-69
2023/05/31 09:39:27;;;;;;;5.32;2.42;;;;;;;21.96;44.44;102404.84;5022888;28;20037;-70
2023/05/31 09:41:52;;;;;;;4.22;2.20;;;;;;;21.99;44.22;102409.09;5008795;28;20099;-68
2023/05/31 09:44:18;;;;;;;5.55;2.40;;;;;;;22.00;44.18;102393.06;5013227;28;20052;-68
2023/05/31 09:46:47;;;;;;;4.97;2.53;;;;;;;21.98;44.50;102391.47;5003002;28;20394;-69
2023/05/31 09:49:13;;;;;;;6.70;2.50;;;;;;;21.96;44.53;102398.69;5023331;28;20215;-69
2023/05/31 09:51:38;;;;;;;6.95;2.58;;;;;;;21.99;44.46;102393.16;5017672;28;20139;-69
2023/05/31 09:54:11;;;;;;;5.07;2.47;;;;;;;21.98;44.44;102392.31;5010922;28;20037;-69
2023/05/31 09:56:38;;;;;;;6.43;2.70;;;;;;;21.99;44.25;102396.66;5014064;28;20786;-68
2023/05/31 09:59:05;;;;;;;5.63;2.40;;;;;;;21.95;44.50;102379.25;5008754;28;20060;-68
2023/05/31 10:01:32;;;;;;;6.97;2.25;;;;;;;22.03;44.27;102395.50;5019953;28;20112;-69
2023/05/31 10:04:00;;;;;;;7.60;2.50;;;;;;;22.04;44.38;102381.22;5009992;28;20026;-69
2023/05/31 10:06:26;;;;;;;6.85;2.15;;;;;;;22.06;44.26;102383.78;5014178;28;20038;-68
2023/05/31 10:08:51;;;;;;;8.25;2.28;;;;;;;22.08;44.01;102381.88;5003922;28;20482;-69
2023/05/31 10:11:26;;;;;;;6.55;2.90;;;;;;;22.07;44.16;102375.69;5011670;28;20052;-68
2023/05/31 10:14:00;;;;;;;7.18;2.60;;;;;;;22.09;44.27;102380.91;5010499;28;20040;-70
2023/05/31 10:16:35;;;;;;;6.32;2.40;;;;;;;22.12;44.02;102379.84;5018632;28;20045;-69
2023/05/31 10:19:03;;;;;;;7.78;2.40;;;;;;;22.10;43.80;102382.59;5002951;28;20519;-70
2023/05/31 10:21:29;;;;;;;4.07;2.22;;;;;;;22.12;44.40;102378.00;5009356;28;20481;-68
2023/05/31 10:24:02;;;;;;;5.15;2.58;;;;;;;22.09;44.17;102371.13;5018480;28;20030;-69
2023/05/31 10:26:45;;;;;;;8.88;2.17;;;;;;;22.12;44.10;102369.22;5017352;28;20045;-70
2023/05/31 10:29:16;;;;;;;4.60;2.10;;;;;;;22.09;44.12;102357.84;5015464;28;20029;-70
2023/05/31 10:31:49;;;;;;;5.57;2.20;;;;;;;22.11;44.35;102360.38;5002996;28;20133;-69
2023/05/31 10:34:19;;;;;;;5.20;2.50;;;;;;;22.14;43.88;102359.31;5006556;28;20033;-70
2023/05/31 10:36:45;;;;;;;5.93;2.05;;;;;;;22.13;44.25;102344.34;5013203;28;20026;-69
2023/05/31 10:39:22;;;;;;;5.75;2.60;;;;;;;22.15;44.12;102334.47;5006715;28;20036;-69
2023/05/31 10:41:53;;;;;;;6.07;2.35;;;;;;;22.18;43.93;102352.81;5016743;28;20030;-71
2023/05/31 10:44:28;;;;;;;6.13;2.20;;;;;;;22.19;43.80;102343.88;5022294;28;20029;-69
2023/05/31 10:47:01;;;;;;;7.38;2.25;;;;;;;22.16;44.06;102333.50;5009347;28;20382;-68
2023/05/31 10:49:31;;;;;;;7.07;2.20;;;;;;;22.18;43.73;102336.91;5013607;28;20394;-70
2023/05/31 10:52:03;;;;;;;6.13;2.50;;;;;;;22.10;44.04;102326.84;5014976;28;20037;-69
2023/05/31 10:54:32;;;;;;;4.38;2.10;;;;;;;22.08;44.20;102326.97;5021349;28;20034;-72
2023/05/31 10:56:58;;;;;;;7.25;2.30;;;;;;;22.15;43.87;102332.66;5004173;28;20042;-69
2023/05/31 10:59:25;;;;;;;5.47;2.20;;;;;;;22.16;43.98;102331.69;5016735;28;20056;-71
2023/05/31 11:01:52;;;;;;;6.32;2.22;;;;;;;22.20;43.48;102329.66;5004920;28;20045;-71
2023/05/31 11:04:25;;;;;;;6.30;2.20;;;;;;;22.17;43.33;102332.53;5018425;28;20435;-70
2023/05/31 11:07:11;;;;;;;8.90;2.50;;;;;;;22.17;43.41;102321.91;5003295;28;20029;-70
2023/05/31 11:09:38;;;;;;;8.48;2.45;;;;;;;22.25;42.83;102319.53;5004077;28;20478;-69
2023/05/31 11:12:05;;;;;;;5.72;2.40;;;;;;;22.23;42.77;102326.78;5008153;28;20033;-71
2023/05/31 11:14:31;;;;;;;4.82;2.20;;;;;;;22.24;42.42;102324.00;5017574;28;20091;-69
2023/05/31 11:17:03;;;;;;;4.85;2.38;;;;;;;22.24;42.40;102325.81;5002070;28;20804;-68
2023/05/31 11:19:30;;;;;;;4.80;2.15;;;;;;;22.24;42.10;102328.47;5004715;28;20041;-69
2023/05/31 11:22:16;;;;;;;6.72;2.50;;;;;;;22.24;41.99;102324.00;5002551;28;20069;-68